D:gle Sibu — 9VIJ3 — position and weather

sailwx.info

Track history (hours):
 
Tides and Currents Weather Stations Pressure Air Temp Water Temp Dewpoint Dewpoint Depression Visibility Wind Speed Wind Dir Waves Ship Positions

D:gle Sibu

Last reported at 2017-Nov-12 16:48 UTC. Time now 2017-Nov-18 23:26 UTC.
Position N 38°43' W 074°10'.

Length 243 m.

Type: Ship. MMSI: 465862000.

Date/timePositionNaut miles runAvg speedWind from/ knotsBaromVisibWave heightAir tempDewpointWater temp
2017-Nov-12 16:48N 38°43' W 074°10'612.7
2017-Nov-12 16:19N 38°42' W 074°18'5 1.6
2017-Nov-12 13:35N 38°41' W 074°23'0 0.0
2017-Nov-12 13:08N 38°41' W 074°23'  
2017-Nov-10 07:02N 38°41' W 074°23'0 0.4
2017-Nov-10 06:41N 38°41' W 074°23'  
2017-Nov-07 14:54N 38°49' W 075°04'3 7.9
2017-Nov-07 14:30N 38°52' W 075°05'611.6
2017-Nov-07 14:00N 38°58' W 075°07'612.1
2017-Nov-07 13:30N 39°03' W 075°10'612.2
2017-Nov-07 13:01N 39°08' W 075°14'612.9
2017-Nov-07 12:30N 39°14' W 075°18'714.4
2017-Nov-07 12:01N 39°19' W 075°24'815.6
2017-Nov-07 11:31N 39°25' W 075°31'713.2
2017-Nov-07 11:00N 39°32' W 075°33'713.3
2017-Nov-07 10:31N 39°38' W 075°34'612.4
2017-Nov-07 10:00N 39°44' W 075°30'3 6.8
2017-Nov-07 09:30N 39°47' W 075°28'3 6.8
2017-Nov-07 09:00N 39°49' W 075°24'1 1.2
2017-Nov-07 08:28N 39°49' W 075°23'0 0.1
2017-Nov-07 07:58N 39°49' W 075°23'0 0.0
2017-Nov-07 07:28N 39°49' W 075°23'0 0.0
2017-Nov-07 06:58N 39°49' W 075°23'0 0.0
2017-Nov-07 06:28N 39°49' W 075°23'0 0.0
2017-Nov-07 05:58N 39°49' W 075°23'0 0.0
2017-Nov-07 05:28N 39°49' W 075°23'0 0.0
2017-Nov-07 04:58N 39°49' W 075°23'0 0.2
2017-Nov-07 04:28N 39°49' W 075°23'0 0.2
2017-Nov-07 03:58N 39°49' W 075°23'0 0.2
2017-Nov-07 03:28N 39°49' W 075°24'0 0.2
2017-Nov-07 02:58N 39°49' W 075°24'0 0.0
2017-Nov-07 02:28N 39°49' W 075°24'0 0.0
2017-Nov-07 01:58N 39°49' W 075°24'0 0.0
2017-Nov-07 01:28N 39°49' W 075°24'0 0.0
2017-Nov-07 00:58N 39°49' W 075°24'0 0.0
2017-Nov-07 00:28N 39°49' W 075°24'0 0.0
2017-Nov-06 23:58N 39°49' W 075°24'0 0.1
2017-Nov-06 23:28N 39°49' W 075°24'0 0.4
2017-Nov-06 22:58N 39°49' W 075°24'0 1.0
2017-Nov-06 22:30N 39°49' W 075°23'2 4.8
2017-Nov-06 22:00N 39°51' W 075°21'3 6.7
2017-Nov-06 21:31N 39°51' W 075°16'0 0.2
2017-Nov-06 20:59N 39°51' W 075°16'0 0.0
2017-Nov-06 20:29N 39°51' W 075°16'0 0.0
2017-Nov-06 02:29N 39°51' W 075°16'0 0.0
2017-Nov-06 01:59N 39°51' W 075°16'0 0.0
2017-Nov-06 01:29N 39°51' W 075°16'0 0.0
2017-Nov-06 00:59N 39°51' W 075°16'0 0.0
2017-Nov-06 00:29N 39°51' W 075°16'0 0.0
2017-Nov-05 23:59N 39°51' W 075°16'0 0.0
2017-Nov-05 23:29N 39°51' W 075°16'0 0.0
2017-Nov-05 22:59N 39°51' W 075°16'0 0.0
2017-Nov-05 22:29N 39°51' W 075°16'0 0.0
2017-Nov-05 21:59N 39°51' W 075°16'0 0.0
2017-Nov-05 21:29N 39°51' W 075°16'0 0.0
2017-Nov-05 20:59N 39°51' W 075°16'0 0.3
2017-Nov-05 20:30N 39°51' W 075°16'2 4.1
2017-Nov-05 20:00N 39°51' W 075°19'4 7.3
2017-Nov-05 19:30N 39°49' W 075°23'4 8.4
2017-Nov-05 19:01N 39°47' W 075°28'5 9.4
2017-Nov-05 18:30N 39°43' W 075°31'5 9.8
2017-Nov-05 18:00N 39°38' W 075°34'611.1
2017-Nov-05 17:30N 39°33' W 075°32'612.3
2017-Nov-05 17:00N 39°27' W 075°33'612.9
2017-Nov-05 16:30N 39°22' W 075°27'713.4
2017-Nov-05 16:00N 39°17' W 075°22'713.1
2017-Nov-05 15:30N 39°12' W 075°17'612.8
2017-Nov-05 15:00N 39°06' W 075°12'612.5
2017-Nov-05 14:30N 39°01' W 075°09'612.7
2017-Nov-05 14:00N 38°55' W 075°05'611.9
2017-Nov-05 13:30N 38°49' W 075°03'4 7.6
2017-Nov-05 13:00N 38°46' W 074°60'7 9.3
2017-Nov-05 12:13N 38°41' W 074°53'3 9.8
2017-Nov-05 11:57N 38°39' W 074°51'12 1.0
2017-Nov-05 00:28N 38°31' W 074°39'811.0
2017-Nov-04 23:45N 38°24' W 074°36'612.8
2017-Nov-04 23:18N 38°19' W 074°33'412.8
2017-Nov-04 23:00N 38°15' W 074°31'812.7
2017-Nov-04 22:23N 38°08' W 074°28'512.8
2017-Nov-04 22:00N 38°03' W 074°25'1512.4
2017-Nov-04 20:49N 37°50' W 074°18'411.7
2017-Nov-04 20:29N 37°46' W 074°17'611.7
2017-Nov-04 20:00N 37°41' W 074°14'  
Track history (hours):
 
Tides and Currents Weather Stations Pressure Air Temp Water Temp Dewpoint Dewpoint Depression Visibility Wind Speed Wind Dir Waves Ship Positions

D:gle Sibu

Last reported at 2017-Nov-12 16:48 UTC. Time now 2017-Nov-18 23:26 UTC.
Position N 38°43' W 074°10'.

Length 243 m.

Type: Ship. MMSI: 465862000.

Date/timePositionNaut miles runAvg speedWind from/ knotsBaromVisibWave heightAir tempDewpointWater temp
2017-Nov-12 16:48N 38°43' W 074°10'612.7
2017-Nov-12 16:19N 38°42' W 074°18'5 1.6
2017-Nov-12 13:35N 38°41' W 074°23'0 0.0
2017-Nov-12 13:08N 38°41' W 074°23'  
2017-Nov-10 07:02N 38°41' W 074°23'0 0.4
2017-Nov-10 06:41N 38°41' W 074°23'  
2017-Nov-07 14:54N 38°49' W 075°04'3 7.9
2017-Nov-07 14:30N 38°52' W 075°05'611.6
2017-Nov-07 14:00N 38°58' W 075°07'612.1
2017-Nov-07 13:30N 39°03' W 075°10'612.2
2017-Nov-07 13:01N 39°08' W 075°14'612.9
2017-Nov-07 12:30N 39°14' W 075°18'714.4
2017-Nov-07 12:01N 39°19' W 075°24'815.6
2017-Nov-07 11:31N 39°25' W 075°31'713.2
2017-Nov-07 11:00N 39°32' W 075°33'713.3
2017-Nov-07 10:31N 39°38' W 075°34'612.4
2017-Nov-07 10:00N 39°44' W 075°30'3 6.8
2017-Nov-07 09:30N 39°47' W 075°28'3 6.8
2017-Nov-07 09:00N 39°49' W 075°24'1 1.2
2017-Nov-07 08:28N 39°49' W 075°23'0 0.1
2017-Nov-07 07:58N 39°49' W 075°23'0 0.0
2017-Nov-07 07:28N 39°49' W 075°23'0 0.0
2017-Nov-07 06:58N 39°49' W 075°23'0 0.0
2017-Nov-07 06:28N 39°49' W 075°23'0 0.0
2017-Nov-07 05:58N 39°49' W 075°23'0 0.0
2017-Nov-07 05:28N 39°49' W 075°23'0 0.0
2017-Nov-07 04:58N 39°49' W 075°23'0 0.2
2017-Nov-07 04:28N 39°49' W 075°23'0 0.2
2017-Nov-07 03:58N 39°49' W 075°23'0 0.2
2017-Nov-07 03:28N 39°49' W 075°24'0 0.2
2017-Nov-07 02:58N 39°49' W 075°24'0 0.0
2017-Nov-07 02:28N 39°49' W 075°24'0 0.0
2017-Nov-07 01:58N 39°49' W 075°24'0 0.0
2017-Nov-07 01:28N 39°49' W 075°24'0 0.0
2017-Nov-07 00:58N 39°49' W 075°24'0 0.0
2017-Nov-07 00:28N 39°49' W 075°24'0 0.0
2017-Nov-06 23:58N 39°49' W 075°24'0 0.1
2017-Nov-06 23:28N 39°49' W 075°24'0 0.4
2017-Nov-06 22:58N 39°49' W 075°24'0 1.0
2017-Nov-06 22:30N 39°49' W 075°23'2 4.8
2017-Nov-06 22:00N 39°51' W 075°21'3 6.7
2017-Nov-06 21:31N 39°51' W 075°16'0 0.2
2017-Nov-06 20:59N 39°51' W 075°16'0 0.0
2017-Nov-06 20:29N 39°51' W 075°16'0 0.0
2017-Nov-06 02:29N 39°51' W 075°16'0 0.0
2017-Nov-06 01:59N 39°51' W 075°16'0 0.0
2017-Nov-06 01:29N 39°51' W 075°16'0 0.0
2017-Nov-06 00:59N 39°51' W 075°16'0 0.0
2017-Nov-06 00:29N 39°51' W 075°16'0 0.0
2017-Nov-05 23:59N 39°51' W 075°16'0 0.0
2017-Nov-05 23:29N 39°51' W 075°16'0 0.0
2017-Nov-05 22:59N 39°51' W 075°16'0 0.0
2017-Nov-05 22:29N 39°51' W 075°16'0 0.0
2017-Nov-05 21:59N 39°51' W 075°16'0 0.0
2017-Nov-05 21:29N 39°51' W 075°16'0 0.0
2017-Nov-05 20:59N 39°51' W 075°16'0 0.3
2017-Nov-05 20:30N 39°51' W 075°16'2 4.1
2017-Nov-05 20:00N 39°51' W 075°19'4 7.3
2017-Nov-05 19:30N 39°49' W 075°23'4 8.4
2017-Nov-05 19:01N 39°47' W 075°28'5 9.4
2017-Nov-05 18:30N 39°43' W 075°31'5 9.8
2017-Nov-05 18:00N 39°38' W 075°34'611.1
2017-Nov-05 17:30N 39°33' W 075°32'612.3
2017-Nov-05 17:00N 39°27' W 075°33'612.9
2017-Nov-05 16:30N 39°22' W 075°27'713.4
2017-Nov-05 16:00N 39°17' W 075°22'713.1
2017-Nov-05 15:30N 39°12' W 075°17'612.8
2017-Nov-05 15:00N 39°06' W 075°12'612.5
2017-Nov-05 14:30N 39°01' W 075°09'612.7
2017-Nov-05 14:00N 38°55' W 075°05'611.9
2017-Nov-05 13:30N 38°49' W 075°03'4 7.6
2017-Nov-05 13:00N 38°46' W 074°60'7 9.3
2017-Nov-05 12:13N 38°41' W 074°53'3 9.8
2017-Nov-05 11:57N 38°39' W 074°51'12 1.0
2017-Nov-05 00:28N 38°31' W 074°39'811.0
2017-Nov-04 23:45N 38°24' W 074°36'612.8
2017-Nov-04 23:18N 38°19' W 074°33'412.8
2017-Nov-04 23:00N 38°15' W 074°31'812.7
2017-Nov-04 22:23N 38°08' W 074°28'512.8
2017-Nov-04 22:00N 38°03' W 074°25'1512.4
2017-Nov-04 20:49N 37°50' W 074°18'411.7
2017-Nov-04 20:29N 37°46' W 074°17'611.7
2017-Nov-04 20:00N 37°41' W 074°14'  

Dump ship's entire track history